createdAt,value
2022-08-17T00:01:31.461Z,77.08
2022-08-17T00:04:19.104Z,77.23
2022-08-17T00:06:45.890Z,77.04
2022-08-17T00:09:15.397Z,76.86
2022-08-17T00:12:03.889Z,76.76
2022-08-17T00:14:36.047Z,76.63
2022-08-17T00:17:04.693Z,76.53
2022-08-17T00:19:32.662Z,76.53
2022-08-17T00:22:34.376Z,75.96
2022-08-17T00:24:47.344Z,77.01
2022-08-17T00:27:13.856Z,77.26
2022-08-17T00:29:40.649Z,77.15
2022-08-17T00:33:22.894Z,77.10
2022-08-17T00:34:53.766Z,76.96
2022-08-17T00:37:20.255Z,77.18
2022-08-17T00:39:46.826Z,76.89
2022-08-17T00:42:19.185Z,76.81
2022-08-17T00:44:46.208Z,76.63
2022-08-17T00:47:13.423Z,76.46
2022-08-17T00:49:40.062Z,76.54
2022-08-17T00:52:15.582Z,76.71
2022-08-17T00:54:46.994Z,76.25
2022-08-17T00:57:22.018Z,76.16
2022-08-17T00:59:56.063Z,76.59
2022-08-17T01:02:40.454Z,76.55
2022-08-17T01:05:18.857Z,76.81
2022-08-17T01:07:47.953Z,76.42
2022-08-17T01:10:57.566Z,76.23
2022-08-17T01:13:03.283Z,76.00
2022-08-17T01:15:32.013Z,76.53
2022-08-17T01:17:58.686Z,77.10
2022-08-17T01:20:25.384Z,76.37
2022-08-17T01:22:53.140Z,76.38
2022-08-17T01:25:21.365Z,76.42
2022-08-17T01:27:49.168Z,76.17
2022-08-17T01:30:58.300Z,76.03
2022-08-17T01:33:02.633Z,76.13
2022-08-17T01:35:29.297Z,76.39
2022-08-17T01:37:55.951Z,76.16
2022-08-17T01:40:37.810Z,76.17
2022-08-17T01:43:11.943Z,76.08
2022-08-17T01:45:46.005Z,76.06
2022-08-17T01:48:12.863Z,76.02
2022-08-17T01:50:41.910Z,78.32
2022-08-17T01:53:18.249Z,80.06
2022-08-17T01:55:53.390Z,81.70
2022-08-17T01:58:20.612Z,82.87
2022-08-17T02:01:00.962Z,82.83
2022-08-17T02:03:29.387Z,83.26
2022-08-17T02:05:56.298Z,82.07
2022-08-17T02:08:37.205Z,83.34
2022-08-17T02:11:11.663Z,82.99
2022-08-17T02:13:38.586Z,83.19
2022-08-17T02:16:05.986Z,82.72
2022-08-17T02:18:32.649Z,82.58
2022-08-17T02:20:59.223Z,82.88
2022-08-17T02:23:30.458Z,82.43
2022-08-17T02:25:59.482Z,82.54
2022-08-17T02:28:28.356Z,82.43
2022-08-17T02:31:01.106Z,82.75
2022-08-17T02:33:41.667Z,82.51
2022-08-17T02:36:12.790Z,79.65
2022-08-17T02:38:40.711Z,79.24
2022-08-17T02:41:08.313Z,77.98
2022-08-17T02:43:35.758Z,78.29
2022-08-17T02:46:02.360Z,78.79
2022-08-17T02:48:31.578Z,77.70
2022-08-17T02:50:59.480Z,76.89
2022-08-17T02:53:26.116Z,76.84
2022-08-17T02:55:53.087Z,76.92
2022-08-17T02:58:35.114Z,76.70
2022-08-17T03:01:04.301Z,77.05
2022-08-17T03:03:30.858Z,77.02
2022-08-17T03:05:57.536Z,77.99
2022-08-17T03:08:25.479Z,77.64
2022-08-17T03:10:52.522Z,76.40
2022-08-17T03:13:19.482Z,77.83
2022-08-17T03:15:47.399Z,78.07
2022-08-17T03:18:25.027Z,77.51
2022-08-17T03:20:55.871Z,77.69
2022-08-17T03:23:25.303Z,77.77
2022-08-17T03:25:54.002Z,77.66
2022-08-17T03:28:22.271Z,77.52
2022-08-17T03:30:49.200Z,78.75
2022-08-17T03:33:16.240Z,78.29
2022-08-17T03:35:43.247Z,78.64
2022-08-17T03:38:11.320Z,78.44
2022-08-17T03:40:57.765Z,78.49
2022-08-17T03:43:28.470Z,78.36
2022-08-17T03:46:27.775Z,78.38
2022-08-17T03:49:17.569Z,79.07
2022-08-17T03:52:02.916Z,78.51
2022-08-17T03:54:47.968Z,77.40
2022-08-17T03:57:14.746Z,77.30
2022-08-17T03:59:41.722Z,77.33
2022-08-17T04:02:11.793Z,77.44
2022-08-17T04:04:38.594Z,76.48
2022-08-17T04:07:05.679Z,76.66
2022-08-17T04:09:32.329Z,76.65
2022-08-17T04:12:02.268Z,77.08
2022-08-17T04:14:39.273Z,77.38
2022-08-17T04:17:21.679Z,77.67
2022-08-17T04:19:48.089Z,77.01
2022-08-17T04:22:31.938Z,76.84
2022-08-17T04:25:16.365Z,77.07
2022-08-17T04:27:43.076Z,76.99
2022-08-17T04:30:10.336Z,77.55
2022-08-17T04:33:06.270Z,77.28
2022-08-17T04:35:40.157Z,77.60
2022-08-17T04:38:09.393Z,76.11
2022-08-17T04:40:55.162Z,77.37
2022-08-17T04:43:24.922Z,77.42
2022-08-17T04:45:55.212Z,77.62
2022-08-17T04:48:29.754Z,78.17
2022-08-17T04:51:05.866Z,78.43
2022-08-17T04:53:32.600Z,78.43
2022-08-17T04:55:59.304Z,78.98
2022-08-17T04:58:25.804Z,79.57
2022-08-17T05:00:52.531Z,79.85
2022-08-17T05:05:49.887Z,80.40
2022-08-17T05:08:19.063Z,79.66
2022-08-17T05:10:46.163Z,80.26
2022-08-17T05:13:19.698Z,80.08
2022-08-17T05:15:48.224Z,79.85
2022-08-17T05:18:16.813Z,80.41
2022-08-17T05:20:43.471Z,80.52
2022-08-17T05:23:13.823Z,80.31
2022-08-17T05:25:46.244Z,80.81
2022-08-17T05:28:19.064Z,80.77
2022-08-17T05:30:50.845Z,80.67
2022-08-17T05:33:26.709Z,80.77
2022-08-17T05:35:55.747Z,80.97
2022-08-17T05:38:25.126Z,81.18
2022-08-17T05:40:53.260Z,80.58
2022-08-17T05:43:27.854Z,80.58
2022-08-17T05:46:06.323Z,81.03
2022-08-17T05:48:45.913Z,80.70
2022-08-17T05:51:24.828Z,80.33
2022-08-17T05:54:07.406Z,80.14
2022-08-17T05:56:52.622Z,80.56
2022-08-17T05:59:43.927Z,80.72
2022-08-17T06:02:29.110Z,80.41
2022-08-17T06:05:23.479Z,80.19
2022-08-17T06:08:00.244Z,80.21
2022-08-17T06:11:04.675Z,79.86
2022-08-17T06:14:10.664Z,79.98
2022-08-17T06:16:41.291Z,80.05
2022-08-17T06:19:35.231Z,79.55
2022-08-17T06:22:03.379Z,79.50
2022-08-17T06:24:56.851Z,79.47
2022-08-17T06:27:36.164Z,79.69
2022-08-17T06:30:14.123Z,80.01
2022-08-17T06:32:45.829Z,80.27
2022-08-17T06:35:15.781Z,80.29
2022-08-17T06:37:54.717Z,79.13
2022-08-17T06:40:27.455Z,79.75
2022-08-17T06:43:10.923Z,79.70
2022-08-17T06:45:49.411Z,79.00
2022-08-17T06:48:33.325Z,79.47
2022-08-17T06:51:29.824Z,79.48
2022-08-17T06:54:05.434Z,79.68
2022-08-17T06:56:53.927Z,79.56
2022-08-17T06:59:54.444Z,79.53
2022-08-17T07:02:51.253Z,79.56
2022-08-17T07:05:22.643Z,79.54
2022-08-17T07:08:09.283Z,79.30
2022-08-17T07:10:42.662Z,79.05
2022-08-17T07:13:51.597Z,79.21
2022-08-17T07:16:41.568Z,79.51
2022-08-17T07:19:10.922Z,79.65
2022-08-17T07:21:52.446Z,79.49
2022-08-17T07:24:43.261Z,78.17
2022-08-17T07:27:12.844Z,79.12
2022-08-17T07:29:50.656Z,79.11
2022-08-17T07:32:23.365Z,79.21
2022-08-17T07:35:31.382Z,79.35
2022-08-17T07:38:24.749Z,80.11
2022-08-17T07:41:01.968Z,82.24
2022-08-17T07:43:37.127Z,82.66
2022-08-17T07:46:34.189Z,83.93
2022-08-17T07:49:03.465Z,84.97
2022-08-17T07:51:33.381Z,84.31
2022-08-17T07:54:13.942Z,85.35
2022-08-17T07:56:51.218Z,84.98
2022-08-17T07:59:18.191Z,85.60
2022-08-17T08:01:57.612Z,85.16
2022-08-17T08:04:59.282Z,85.67
2022-08-17T08:07:26.772Z,84.24
2022-08-17T08:10:08.666Z,82.33
2022-08-17T08:12:46.963Z,81.33
2022-08-17T08:15:21.429Z,79.60
2022-08-17T08:18:03.781Z,78.27
2022-08-17T08:20:51.236Z,76.21
2022-08-17T08:23:31.481Z,77.28
2022-08-17T08:26:27.014Z,75.61
2022-08-17T08:29:08.623Z,73.93
2022-08-17T08:32:20.497Z,74.00
2022-08-17T08:35:06.706Z,74.16
2022-08-17T08:38:11.114Z,73.26
2022-08-17T08:41:07.711Z,72.61
2022-08-17T08:43:52.976Z,71.24
2022-08-17T08:46:31.654Z,70.92
2022-08-17T08:48:59.602Z,71.55
2022-08-17T08:51:40.393Z,70.55
2022-08-17T08:54:27.021Z,69.91
2022-08-17T08:57:23.146Z,70.72
2022-08-17T09:00:15.466Z,71.10
2022-08-17T09:02:50.990Z,70.87
2022-08-17T09:05:23.466Z,71.22
2022-08-17T09:08:02.088Z,70.21
2022-08-17T09:10:41.263Z,70.48
2022-08-17T09:13:16.294Z,68.44
2022-08-17T09:15:47.310Z,68.67
2022-08-17T09:19:01.893Z,69.23
2022-08-17T09:21:21.545Z,69.38
2022-08-17T09:24:00.160Z,70.86
2022-08-17T09:26:40.075Z,70.22
2022-08-17T09:29:09.959Z,70.95
2022-08-17T09:31:58.329Z,70.18
2022-08-17T09:34:54.851Z,68.47
2022-08-17T09:37:35.580Z,69.52
2022-08-17T09:40:24.261Z,71.58
2022-08-17T09:42:56.424Z,73.69
2022-08-17T09:45:40.561Z,74.82
2022-08-17T09:48:32.715Z,76.46
2022-08-17T09:51:24.492Z,75.52
2022-08-17T09:53:51.390Z,75.88
2022-08-17T09:56:27.249Z,75.94
2022-08-17T09:59:08.997Z,76.96
2022-08-17T10:01:53.499Z,76.72
2022-08-17T10:04:32.671Z,77.10
2022-08-17T10:07:22.664Z,76.20
2022-08-17T10:09:49.211Z,74.18
2022-08-17T10:12:34.182Z,73.16
2022-08-17T10:15:18.940Z,73.05
2022-08-17T10:18:04.037Z,69.94
2022-08-17T10:21:14.898Z,70.29
2022-08-17T10:24:01.246Z,68.89
2022-08-17T10:26:46.266Z,71.42
2022-08-17T10:29:24.842Z,68.43
2022-08-17T10:32:01.591Z,68.82
2022-08-17T10:35:14.616Z,66.80
2022-08-17T10:37:44.181Z,66.56
2022-08-17T10:40:26.475Z,66.70
2022-08-17T10:43:34.712Z,66.94
2022-08-17T10:46:30.407Z,66.61
2022-08-17T10:49:18.406Z,66.47
2022-08-17T10:51:57.068Z,67.34
2022-08-17T10:55:01.194Z,67.31
2022-08-17T10:57:31.769Z,66.50
2022-08-17T11:00:03.455Z,67.17
2022-08-17T11:02:45.777Z,66.32
2022-08-17T11:05:43.857Z,66.23
2022-08-17T11:08:18.694Z,66.49
2022-08-17T11:11:10.826Z,67.48
2022-08-17T11:13:49.219Z,67.34
2022-08-17T11:16:24.325Z,67.32
2022-08-17T11:19:21.301Z,68.20
2022-08-17T11:22:06.035Z,67.04
2022-08-17T11:24:51.316Z,66.98
2022-08-17T11:27:34.088Z,68.75
2022-08-17T11:30:41.366Z,69.41
2022-08-17T11:33:44.741Z,69.47
2022-08-17T11:36:37.390Z,69.93
2022-08-17T11:39:22.058Z,74.97
2022-08-17T11:42:00.863Z,79.94
2022-08-17T11:44:42.019Z,78.98
2022-08-17T11:47:34.867Z,78.77
2022-08-17T11:50:38.712Z,80.07
2022-08-17T11:53:06.035Z,80.36
2022-08-17T11:55:38.496Z,79.43
2022-08-17T11:58:27.015Z,81.01
2022-08-17T12:00:57.452Z,81.34
2022-08-17T12:03:32.133Z,81.15
2022-08-17T12:06:04.758Z,80.94
2022-08-17T12:08:33.878Z,80.87
2022-08-17T12:11:06.408Z,82.57
2022-08-17T12:14:03.288Z,81.08
2022-08-17T12:16:29.948Z,81.33
2022-08-17T12:18:59.893Z,83.34
2022-08-17T12:21:40.585Z,83.12
2022-08-17T12:24:20.849Z,83.65
2022-08-17T12:26:58.210Z,82.47
2022-08-17T12:29:38.594Z,82.94
2022-08-17T12:32:07.591Z,80.61
2022-08-17T12:34:36.565Z,82.15
2022-08-17T12:37:07.949Z,82.22
2022-08-17T12:39:34.765Z,81.11
2022-08-17T12:42:02.774Z,82.66
2022-08-17T12:44:33.808Z,82.77
2022-08-17T12:47:22.183Z,81.99
2022-08-17T12:49:52.879Z,83.10
2022-08-17T12:52:19.393Z,83.36
2022-08-17T12:54:59.608Z,82.75
2022-08-17T12:57:33.715Z,82.51
2022-08-17T13:00:15.737Z,82.57
2022-08-17T13:02:44.654Z,82.05
2022-08-17T13:05:28.994Z,81.84
2022-08-17T13:07:58.860Z,81.80
2022-08-17T13:10:33.391Z,82.30
2022-08-17T13:13:06.004Z,81.97
2022-08-17T13:15:44.786Z,82.14
2022-08-17T13:18:39.012Z,81.60
2022-08-17T13:21:27.566Z,80.97
2022-08-17T13:24:13.764Z,82.67
2022-08-17T13:26:44.209Z,83.05
2022-08-17T13:29:33.553Z,83.32
2022-08-17T13:32:13.069Z,84.13
2022-08-17T13:35:07.816Z,84.72
2022-08-17T13:37:35.685Z,84.86
2022-08-17T13:40:02.406Z,85.61
2022-08-17T13:42:52.204Z,85.70
2022-08-17T13:45:36.768Z,86.21
2022-08-17T13:48:26.766Z,85.31
2022-08-17T13:50:56.055Z,84.89
2022-08-17T13:53:31.162Z,84.86
2022-08-17T13:56:37.587Z,84.46
2022-08-17T13:59:53.421Z,85.50
2022-08-17T14:02:13.477Z,85.24
2022-08-17T14:04:44.033Z,83.70
2022-08-17T14:07:11.564Z,83.44
2022-08-17T14:09:40.930Z,83.79
2022-08-17T14:12:13.576Z,84.21
2022-08-17T14:14:42.626Z,84.90
2022-08-17T14:17:10.043Z,83.70
2022-08-17T14:19:37.891Z,84.23
2022-08-17T14:22:05.138Z,84.07
2022-08-17T14:24:35.112Z,84.02
2022-08-17T14:27:03.587Z,84.19
2022-08-17T14:29:33.173Z,84.44
2022-08-17T14:32:07.957Z,82.71
2022-08-17T14:34:34.642Z,83.07
2022-08-17T14:37:01.142Z,82.77
2022-08-17T14:39:28.737Z,83.77
2022-08-17T14:41:56.107Z,81.55
2022-08-17T14:44:22.559Z,83.12
2022-08-17T14:46:50.603Z,83.11
2022-08-17T14:49:20.650Z,82.33
2022-08-17T14:51:47.424Z,82.40
2022-08-17T14:54:33.710Z,82.75
2022-08-17T14:57:22.362Z,82.55
2022-08-17T14:59:51.710Z,83.33
2022-08-17T15:02:22.401Z,82.44
2022-08-17T15:05:04.258Z,83.13
2022-08-17T15:07:31.481Z,82.37
2022-08-17T15:10:01.495Z,82.69
2022-08-17T15:12:33.090Z,82.67
2022-08-17T15:15:04.804Z,82.11
2022-08-17T15:17:44.191Z,82.68
2022-08-17T15:20:28.084Z,82.31
2022-08-17T15:22:57.249Z,83.18
2022-08-17T15:25:26.137Z,82.10
2022-08-17T15:27:54.024Z,81.92
2022-08-17T15:30:20.582Z,81.94
2022-08-17T15:32:54.701Z,82.93
2022-08-17T15:35:29.167Z,82.42
2022-08-17T15:38:06.270Z,83.35
2022-08-17T15:40:38.741Z,82.58
2022-08-17T15:43:08.124Z,82.74
2022-08-17T15:45:35.289Z,82.37
2022-08-17T15:48:02.033Z,81.79
2022-08-17T15:50:28.617Z,82.59
2022-08-17T15:52:59.796Z,82.14
2022-08-17T15:55:29.304Z,81.69
2022-08-17T15:57:55.802Z,81.25
2022-08-17T16:00:24.061Z,79.44
2022-08-17T16:03:13.819Z,80.66
2022-08-17T16:05:37.711Z,78.00
2022-08-17T16:08:07.550Z,78.64
2022-08-17T16:10:35.024Z,79.52
2022-08-17T16:13:03.451Z,78.59
2022-08-17T16:15:31.601Z,80.53
2022-08-17T16:17:58.381Z,79.58
2022-08-17T16:20:24.873Z,79.59
2022-08-17T16:22:51.655Z,80.82
2022-08-17T16:25:22.921Z,81.65
2022-08-17T16:28:09.427Z,81.77
2022-08-17T16:30:37.470Z,81.55
2022-08-17T16:33:04.087Z,82.35
2022-08-17T16:35:30.620Z,82.53
2022-08-17T16:37:58.387Z,83.16
2022-08-17T16:40:28.991Z,83.22
2022-08-17T16:42:57.695Z,83.32
2022-08-17T16:45:40.514Z,83.49
2022-08-17T16:48:08.072Z,83.80
2022-08-17T16:50:35.129Z,83.04
2022-08-17T16:53:10.940Z,82.91
2022-08-17T16:55:38.200Z,82.47
2022-08-17T16:58:06.338Z,80.92
2022-08-17T17:00:33.774Z,82.10
2022-08-17T17:03:19.462Z,81.49
2022-08-17T17:05:59.194Z,81.44
2022-08-17T17:08:31.355Z,82.56
2022-08-17T17:11:03.875Z,82.59
2022-08-17T17:13:50.262Z,82.48
2022-08-17T17:16:28.890Z,82.94
2022-08-17T17:19:09.109Z,82.36
2022-08-17T17:21:55.986Z,82.37
2022-08-17T17:24:42.035Z,81.48
2022-08-17T17:27:18.447Z,82.83
2022-08-17T17:30:03.772Z,81.19
2022-08-17T17:32:49.497Z,82.62
2022-08-17T17:35:24.036Z,83.21
2022-08-17T17:37:52.920Z,83.91
2022-08-17T17:40:23.916Z,84.27
2022-08-17T17:42:53.658Z,83.07
2022-08-17T17:45:23.911Z,83.68
2022-08-17T17:47:50.740Z,84.96
2022-08-17T17:50:19.969Z,85.06
2022-08-17T17:53:11.277Z,85.13
2022-08-17T17:56:43.248Z,85.00
2022-08-17T17:59:24.195Z,85.06
2022-08-17T18:02:51.624Z,84.92
2022-08-17T18:05:39.056Z,84.94
2022-08-17T18:08:11.327Z,84.72
2022-08-17T18:10:50.788Z,84.96
2022-08-17T18:13:54.928Z,84.32
2022-08-17T18:16:22.592Z,84.86
2022-08-17T18:18:52.417Z,84.43
2022-08-17T18:21:24.258Z,84.85
2022-08-17T18:23:53.823Z,84.93
2022-08-17T18:26:43.801Z,85.13
2022-08-17T18:29:26.133Z,85.06
2022-08-17T18:32:13.368Z,85.41
2022-08-17T18:34:48.568Z,84.99
2022-08-17T18:37:31.797Z,84.69
2022-08-17T18:39:58.593Z,85.26
2022-08-17T18:42:28.219Z,85.47
2022-08-17T18:44:55.746Z,85.38
2022-08-17T18:47:28.570Z,85.76
2022-08-17T18:50:25.883Z,86.39
2022-08-17T18:52:52.839Z,87.87
2022-08-17T18:55:22.957Z,88.04
2022-08-17T18:57:56.847Z,88.05
2022-08-17T19:00:26.452Z,88.64
2022-08-17T19:02:56.796Z,89.34
2022-08-17T19:05:37.150Z,89.49
2022-08-17T19:08:18.725Z,90.57
2022-08-17T19:10:51.752Z,89.71
2022-08-17T19:13:28.964Z,91.01
2022-08-17T19:16:14.206Z,90.83
2022-08-17T19:19:14.571Z,90.23
2022-08-17T19:21:53.210Z,90.15
2022-08-17T19:24:23.007Z,90.21
2022-08-17T19:27:07.999Z,89.47
2022-08-17T19:29:51.414Z,90.46
2022-08-17T19:32:24.416Z,91.07
2022-08-17T19:34:51.177Z,90.18
2022-08-17T19:37:23.451Z,90.13
2022-08-17T19:40:52.461Z,90.60
2022-08-17T19:44:01.107Z,90.65
2022-08-17T19:46:39.176Z,90.55
2022-08-17T19:49:32.936Z,90.48
2022-08-17T19:52:30.526Z,91.14
2022-08-17T19:55:04.787Z,90.11
2022-08-17T19:57:56.373Z,89.80
2022-08-17T20:00:23.412Z,90.63
2022-08-17T20:03:05.941Z,90.28
2022-08-17T20:06:08.706Z,90.82
2022-08-17T20:08:29.042Z,89.97
2022-08-17T20:11:31.641Z,91.02
2022-08-17T20:14:32.831Z,91.22
2022-08-17T20:17:02.619Z,90.65
2022-08-17T20:19:37.786Z,89.99
2022-08-17T20:22:10.933Z,90.64
2022-08-17T20:24:57.830Z,91.04
2022-08-17T20:27:33.216Z,90.65
2022-08-17T20:30:12.051Z,90.82
2022-08-17T20:32:48.583Z,91.01
2022-08-17T20:35:15.027Z,90.55
2022-08-17T20:37:44.769Z,90.79
2022-08-17T20:40:19.204Z,90.48
2022-08-17T20:42:45.907Z,90.00
2022-08-17T20:45:21.460Z,89.99
2022-08-17T20:48:18.601Z,89.97
2022-08-17T20:50:43.781Z,90.50
2022-08-17T20:53:15.219Z,90.80
2022-08-17T20:55:52.573Z,90.47
2022-08-17T20:58:30.955Z,90.92
2022-08-17T21:00:57.883Z,90.27
2022-08-17T21:03:24.464Z,90.62
2022-08-17T21:05:53.493Z,90.33
2022-08-17T21:08:34.271Z,90.10
2022-08-17T21:12:02.797Z,90.03
2022-08-17T21:14:36.662Z,90.56
2022-08-17T21:17:33.575Z,91.11
2022-08-17T21:20:11.772Z,90.63
2022-08-17T21:23:06.868Z,90.84
2022-08-17T21:25:49.077Z,90.72
2022-08-17T21:28:33.973Z,90.10
2022-08-17T21:31:08.513Z,90.90
2022-08-17T21:33:39.605Z,91.15
2022-08-17T21:36:12.282Z,90.87
2022-08-17T21:38:47.980Z,90.97
2022-08-17T21:41:34.155Z,90.75
2022-08-17T21:44:18.079Z,90.43
2022-08-17T21:46:47.318Z,89.88
2022-08-17T21:49:17.739Z,90.01
2022-08-17T21:51:54.275Z,89.56
2022-08-17T21:54:26.858Z,89.70
2022-08-17T21:56:53.788Z,89.84
2022-08-17T21:59:30.586Z,90.19
2022-08-17T22:02:03.135Z,89.58
2022-08-17T22:04:31.445Z,89.42
2022-08-17T22:07:01.235Z,89.23
2022-08-17T22:09:34.371Z,89.35
2022-08-17T22:12:00.903Z,90.64
2022-08-17T22:14:52.960Z,90.60
2022-08-17T22:17:25.151Z,91.05
2022-08-17T22:20:08.895Z,90.45
2022-08-17T22:23:16.590Z,90.44
2022-08-17T22:26:04.517Z,89.94
2022-08-17T22:28:43.339Z,90.07
2022-08-17T22:31:14.664Z,90.49
2022-08-17T22:34:13.702Z,89.23
2022-08-17T22:36:41.882Z,89.75
2022-08-17T22:39:08.365Z,90.03
2022-08-17T22:41:48.153Z,90.45
2022-08-17T22:44:35.587Z,90.16
2022-08-17T22:47:18.722Z,89.67
2022-08-17T22:49:58.787Z,90.10
2022-08-17T22:53:01.473Z,89.75
2022-08-17T22:56:10.062Z,90.10
2022-08-17T22:59:02.420Z,90.07
2022-08-17T23:01:31.455Z,89.99
2022-08-17T23:04:02.378Z,90.54
2022-08-17T23:06:30.025Z,89.96
2022-08-17T23:08:58.066Z,90.03
2022-08-17T23:11:42.960Z,90.00
2022-08-17T23:14:19.161Z,90.09
2022-08-17T23:16:46.350Z,90.00
2022-08-17T23:19:15.459Z,89.45
2022-08-17T23:21:45.011Z,89.34
2022-08-17T23:24:17.284Z,89.83
2022-08-17T23:26:43.806Z,90.47
2022-08-17T23:29:10.292Z,89.79
2022-08-17T23:31:38.682Z,89.93
2022-08-17T23:34:10.045Z,90.14
2022-08-17T23:36:36.561Z,90.13
2022-08-17T23:39:05.340Z,90.01
2022-08-17T23:41:35.210Z,89.86
2022-08-17T23:44:04.467Z,89.79
2022-08-17T23:46:31.067Z,90.07
2022-08-17T23:48:57.504Z,90.48
2022-08-17T23:51:28.401Z,90.26
2022-08-17T23:53:58.260Z,90.30
2022-08-17T23:56:25.763Z,90.24
2022-08-17T23:58:54.829Z,90.82
